Airport ID:K00U
Update Time (UTC):03/08/2021 18:06
Wind Speed (Knots):8
Wind Direction (Magnetic):260
Temperature (°C):23
Dew Point (°C):17
Humidity (%):65
Altimeter (inHg):30.09
Density Altitude (Feet):4800
Visibility (Miles):9
Clouds (Hundreds of feet):CLR
Present Weather:
METAR:METAR K00U 031805Z AUTO 27008KT 9SM CLR 23/17 A3009 RMK A01

The data displayed is for advisory purposes only and is not to be used for flight planning or operations.